Honolulu, HI (96801)

08:11 PM HST del 03 Dicembre 2016 (GMT -1000)
Honolulu Harbor Pier 35 | | Change Station
Avvisi attivi: Flash Flood Watch

Alt. 0 ft 21.32 °N, 157.88 °W | Updated 3 seconds ago

Partly Cloudy
Parzialmente nuvoloso
73.2 °F
Sembra 73 °F
N
0.0
Vento Variabile Vento da Est
Gusts 4.0 mph

Oggi
Massima -- | Minima -- °F
--% Possibilità di precip.
Ieri
Massima -- | Minima -- °F
Precip. -- in
Pressione 29.86 in
Visibilità 10.0 miglia
Nuvole Alcuni 2600 ft
Alcuni 3800 ft
Indice di calore 73 °F
Punto di rugiada 68 °F
Umidità 83%
Piovosità 0.00 in
Spessore del manto nevoso Non disponibile.
6:54 AM 5:48 PM
Luna crescente, 20% visible
METAR PHNL 040553Z 01003KT 10SM FEW026 FEW038 21/19 A2985 RMK AO2 SLP109 60000 T02110189 10272 20211 53008
Pressione 29.86 in
Visibilità 10.0 miglia
Nuvole Alcuni 2600 ft
Alcuni 3800 ft
Indice di calore 73 °F
Punto di rugiada 68 °F
Umidità 83%
Piovosità 0.00 in
Spessore del manto nevoso Non disponibile.
6:54 AM 5:48 PM
Luna crescente, 20% visible
METAR PHNL 040553Z 01003KT 10SM FEW026 FEW038 21/19 A2985 RMK AO2 SLP109 60000 T02110189 10272 20211 53008

10-Day Weather Forecast

Almanac

Astronomia

Dec. 03, 2016 Alba Tramonto
Ora attuale
Crepuscolo civile
Crepuscolo nautico
Crepuscolo astronomico
Luna
Estensione della luce visibile
Lunghezza del giorno
Tomorrow will be .
, % of the Moon is Illuminated

Gli estremi di oggi

State Highs State Lows

Community

WunderPhotos

Upload Photos

1,955,587 foto caricate!

WunderBlog® & News

Nearby

Qualità dell'aria

  Qualità dell'aria Indice AQ Inquinante
Not available.

Profondità neve

Stazione Profondità Altitudine

Attività sismica

Città  Distanza Mag. Data & Ora
Minimo Magnitudo Mostrato è 2.5.

Temperature delle acque costiere

Località Temperatura

Stations

Stazioni meteo nelle vicinanze

Ubicazione della stazione Temp. Raffreddamento del vento Punto di rugiada Umidità Vento Precip. Alt. Aggiornato Tipo
                   

Watches & Warnings

Flash Flood Watch
Issued: 15:35 HST Dec. 3, 2016 – National Weather Service

... Flash Flood Watch remains in effect through Sunday afternoon...

The Flash Flood Watch continues for

* all Hawaiian islands.

* Through Sunday afternoon

* the combination of deep tropical moisture and an unstable
airmass will allow for the potential for heavy showers and
thunderstorms across the state.

* Heavier downpours and thunderstorms could cause streams to
quickly overflow their banks... leading to flash flooding.

Precautionary/preparedness actions...

A Flash Flood Watch means that conditions may develop that lead
to flash flooding. Flash flooding is very dangerous.

You should monitor later forecasts and be prepared to take action
should flash flood warnings be issued. Campers and hikers should
consider postponing their Outing until the weather is better.
High streams... as well as streams overflowing their banks... could
make conditions very dangerous.



Burke